Pyrites, New York
Current Conditions -  °F | °C
As of 3:53 AM on Wednesday 22 Oct 2014 (Local Time) from KMSS Reporting Station
Overcast Overcast  
Wind Chill:   Ceiling: 2100
Heat Index:   Visibility: 10mi
Dew Point:   Wind: 14mph
Humidity: 65%   Direction: 40°NE
Pressure: 30.17"   Gusts: NA
Location:  44.51°N, 75.19°W
Report Text: KMSS 220753Z AUTO 04012KT 10SM OVC021 07/01 A3017 RMK AO2 SLP219 T00720011
Loading
Personal Weather Stations






























Interactive Weather Map
Tropical Storm Tracking
New forecast layout! Learn more

10-Day Weather Forecast

Advertisements
Track Severe Weather on mobile